Home > Products > Valid Products > MTR

000
SAUS43 KMQT 291703 COR
MTRP53
METAR KP53 291656Z AUTO 19014G22KT 01/M03 A2962 RMK AO1 PK WND
18036/1603 SLP036 P0001 T00061028





000
SAUS43 KMQT 291652
MTRP59
METAR KP59 291651Z AUTO 24013G22KT 01/M01 A2948 RMK AO1 PK WND
26030/1624 SLP994 P0004 T00061011 $





000
SAUS43 KMQT 291604 COR
MTRP53
METAR KP53 291556Z AUTO 20021G40KT 04/M07 A2962 RMK AO1 PK WND
20040/1506 SLP038 T00391072





000
SAUS43 KMQT 291552
MTRP59
METAR KP59 291551Z AUTO 24012G25KT 00/M02 A2951 RMK AO1 PK WND
25028/1506 SLP005 P0007 T00001017 $





000
SAUS43 KMQT 291552
MTRP59
METAR KP59 291551Z AUTO 24012G25KT 00/M02 A2951 RMK AO1 PK WND
25028/1506 SLP005 P0007 T00001017 $





000
SAUS43 KMQT 291504 COR
MTRP53
METAR KP53 291456Z AUTO 19022G37KT 03/M08 A2966 RMK AO1 PK WND
21037/1455 PRESFR SLP050 T00331078 58069





000
SAUS43 KMQT 291452
MTRP59
METAR KP59 291451Z AUTO 24014G25KT 02/M05 A2953 RMK AO1 PK WND
26028/1439 SLP012 P0001 60001 T00171050 56045 $





000
SAUS43 KMQT 291452
MTRP59
METAR KP59 291451Z AUTO 24014G25KT 02/M05 A2953 RMK AO1 PK WND
26028/1439 SLP012 P0001 60001 T00171050 56045 $





000
SAUS43 KMQT 291403 COR
MTRP53
METAR KP53 291356Z AUTO 19013G31KT 02/M08 A2974 RMK AO1 PK WND
17032/1319 PRESFR SLP078 T00171078





000
SAUS43 KMQT 291403 COR
MTRP53
METAR KP53 291356Z AUTO 19013G31KT 02/M08 A2974 RMK AO1 PK WND
17032/1319 PRESFR SLP078 T00171078





000
SAUS43 KMQT 291354
MTRP59
METAR KP59 291351Z AUTO 23014G24KT 01/M06 A2957 RMK AO1 PK WND
23031/1330 SLP023 T00111056 $





000
SAUS43 KMQT 291354
MTRP59
METAR KP59 291351Z AUTO 23014G24KT 01/M06 A2957 RMK AO1 PK WND
23031/1330 SLP023 T00111056 $





000
SAUS43 KMQT 291303 COR
MTRP53
METAR KP53 291256Z AUTO 18015G24KT 01/M08 A2980 RMK AO1 PRESFR
SLP099 T00061083





000
SAUS43 KMQT 291303 COR
MTRP53
METAR KP53 291256Z AUTO 18015G24KT 01/M08 A2980 RMK AO1 PRESFR
SLP099 T00061083





000
SAUS43 KMQT 291254
MTRP59
METAR KP59 291251Z AUTO 24013G22KT 02/M07 A2961 RMK AO1 SLP039
T00171072 $





000
SAUS43 KMQT 291254
MTRP59
METAR KP59 291251Z AUTO 24013G22KT 02/M07 A2961 RMK AO1 SLP039
T00171072 $





000
SAUS43 KMQT 291203 COR
MTRP53
METAR KP53 291156Z AUTO 18012G24KT M01/M08 A2986 RMK AO1 SLP121
T10061078 11006 21022 58027





000
SAUS43 KMQT 291203 COR
MTRP53
METAR KP53 291156Z AUTO 18012G24KT M01/M08 A2986 RMK AO1 SLP121
T10061078 11006 21022 58027





000
SAUS43 KMQT 291154
MTRP59
METAR KP59 291151Z AUTO 23012G20KT 01/M07 A2967 RMK AO1 PRESFR
SLP058 T00111072 10011 21011 58050 $





000
SAUS43 KMQT 291154
MTRP59
METAR KP59 291151Z AUTO 23012G20KT 01/M07 A2967 RMK AO1 PRESFR
SLP058 T00111072 10011 21011 58050 $





000
SAUS43 KMQT 291104 COR
MTRP53
METAR KP53 291056Z AUTO 20012G23KT M01/M08 A2990 RMK AO1 SLP133
T10061083





000
SAUS43 KMQT 291104 COR
MTRP53
METAR KP53 291056Z AUTO 20012G23KT M01/M08 A2990 RMK AO1 SLP133
T10061083





000
SAUS43 KMQT 291054
MTRP59
METAR KP59 291051Z AUTO 23012G21KT 01/M08 A2973 RMK AO1 SLP079
T00111078 $





000
SAUS43 KMQT 291004 COR
MTRP53
METAR KP53 290956Z AUTO 19012G19KT M01/M08 A2994 RMK AO1 SLP146
T10061078





000
SAUS43 KMQT 291004 COR
MTRP53
METAR KP53 290956Z AUTO 19012G19KT M01/M08 A2994 RMK AO1 SLP146
T10061078





000
SAUS43 KMQT 290954
MTRP59
METAR KP59 290951Z AUTO 24011G20KT 01/M08 A2978 RMK AO1 SLP096
T00061078 $





000
SAUS43 KMQT 290904 COR
MTRP53
METAR KP53 290856Z AUTO 20011G19KT M01/M08 A2995 RMK AO1 SLP148
T10061083 58030





000
SAUS43 KMQT 290854
MTRP59
METAR KP59 290851Z AUTO 24009G18KT 00/M08 A2982 RMK AO1 SLP108
T00001083 58029 $





000
SAUS43 KMQT 290804 COR
MTRP53
METAR KP53 290756Z AUTO 19009KT M02/M08 A2998 RMK AO1 SLP160
T10171078





000
SAUS43 KMQT 290804 COR
MTRP53
METAR KP53 290756Z AUTO 19009KT M02/M08 A2998 RMK AO1 SLP160
T10171078





000
SAUS43 KMQT 290754
MTRP59
METAR KP59 290751Z AUTO 24009G17KT M01/M09 A2985 RMK AO1 SLP119
T10061094 $





000
SAUS43 KMQT 290754
MTRP59
METAR KP59 290751Z AUTO 24009G17KT M01/M09 A2985 RMK AO1 SLP119
T10061094 $





000
SAUS43 KMQT 290704 COR
MTRP53
METAR KP53 290656Z AUTO 19008KT M02/M07 A3001 RMK AO1 SLP171
T10221067





000
SAUS43 KMQT 290704 COR
MTRP53
METAR KP53 290656Z AUTO 19008KT M02/M07 A3001 RMK AO1 SLP171
T10221067





000
SAUS43 KMQT 290654
MTRP59
METAR KP59 290651Z AUTO 24008G16KT M01/M09 A2988 RMK AO1 SLP131
T10111094 $





000
SAUS43 KMQT 290654
MTRP59
METAR KP59 290651Z AUTO 24008G16KT M01/M09 A2988 RMK AO1 SLP131
T10111094 $





000
SAUS43 KMQT 290603 COR
MTRP53
METAR KP53 290556Z AUTO 19009G16KT M02/M06 A3004 RMK AO1 SLP179
T10221061 10006 21022 58027





000
SAUS43 KMQT 290603 COR
MTRP53
METAR KP53 290556Z AUTO 19009G16KT M02/M06 A3004 RMK AO1 SLP179
T10221061 10006 21022 58027





000
SAUS43 KMQT 290552
MTRP59
METAR KP59 290551Z AUTO 25007KT M01/M10 A2991 RMK AO1 SLP139
T10061100 11006 21039 58036 $





000
SAUS43 KMQT 290552
MTRP59
METAR KP59 290551Z AUTO 25007KT M01/M10 A2991 RMK AO1 SLP139
T10061100 11006 21039 58036 $





000
SAUS43 KMQT 290504 COR
MTRP53
METAR KP53 290456Z AUTO 19008KT M02/M06 A3006 RMK AO1 SLP190
T10221061 400441189





000
SAUS43 KMQT 290504 COR
MTRP53
METAR KP53 290456Z AUTO 19008KT M02/M06 A3006 RMK AO1 SLP190
T10221061 400441189





000
SAUS43 KMQT 290452
MTRP59
METAR KP59 290451Z AUTO 24007KT M03/M07 A2994 RMK AO1 SLP154
T10281072 400111183 $





000
SAUS43 KMQT 290452
MTRP59
METAR KP59 290451Z AUTO 24007KT M03/M07 A2994 RMK AO1 SLP154
T10281072 400111183 $





000
SAUS43 KMQT 290403 COR
MTRP53
METAR KP53 290356Z AUTO 19008KT M02/M06 A3010 RMK AO1 SLP202
T10221061





000
SAUS43 KMQT 290403 COR
MTRP53
METAR KP53 290356Z AUTO 19008KT M02/M06 A3010 RMK AO1 SLP202
T10221061





000
SAUS43 KMQT 290353
MTRP59
METAR KP59 290351Z AUTO 24006KT M04/M08 A2998 RMK AO1 SLP166
T10391078 $





000
SAUS43 KMQT 290353
MTRP59
METAR KP59 290351Z AUTO 24006KT M04/M08 A2998 RMK AO1 SLP166
T10391078 $





000
SAUS43 KMQT 290303 COR
MTRP53
METAR KP53 290256Z AUTO 19008KT M02/M07 A3012 RMK AO1 SLP208
T10171067 58007





000
SAUS43 KMQT 290303 COR
MTRP53
METAR KP53 290256Z AUTO 19008KT M02/M07 A3012 RMK AO1 SLP208
T10171067 58007





000
SAUS43 KMQT 290254
MTRP59
METAR KP59 290251Z AUTO 24006KT M03/M12 A3001 RMK AO1 SLP178
T10331122 $





000
SAUS43 KMQT 290254
MTRP59
METAR KP59 290251Z AUTO 24006KT M03/M12 A3001 RMK AO1 SLP178
T10331122 $





000
SAUS43 KMQT 290203 COR
MTRP53
METAR KP53 290156Z AUTO 19009KT M01/M07 A3013 RMK AO1 SLP214
T10111072





000
SAUS43 KMQT 290203 COR
MTRP53
METAR KP53 290156Z AUTO 19009KT M01/M07 A3013 RMK AO1 SLP214
T10111072





000
SAUS43 KMQT 290153
MTRP59
METAR KP59 290151Z AUTO VRB04KT M03/M09 A3005 RMK AO1 SLP189
T10331094 $





000
SAUS43 KMQT 290153
MTRP59
METAR KP59 290151Z AUTO VRB04KT M03/M09 A3005 RMK AO1 SLP189
T10331094 $





000
SAUS43 KMQT 290103 COR
MTRP53
METAR KP53 290056Z AUTO 19008KT M01/M09 A3014 RMK AO1 SLP219
T10111089





000
SAUS43 KMQT 290103 COR
MTRP53
METAR KP53 290056Z AUTO 19008KT M01/M09 A3014 RMK AO1 SLP219
T10111089





000
SAUS43 KMQT 290053
MTRP59
METAR KP59 290051Z AUTO VRB06KT M03/M12 A3006 RMK AO1 SLP196
T10281117 $





000
SAUS43 KMQT 290053
MTRP59
METAR KP59 290051Z AUTO VRB06KT M03/M12 A3006 RMK AO1 SLP196
T10281117 $





000
SAUS43 KMQT 290004 COR
MTRP53
METAR KP53 282356Z AUTO 18008KT 01/M11 A3014 RMK AO1 SLP219
T00061106 10044 21017 55012





000
SAUS43 KMQT 290004 COR
MTRP53
METAR KP53 282356Z AUTO 18008KT 01/M11 A3014 RMK AO1 SLP219
T00061106 10044 21017 55012





000
SAUS43 KMQT 282354
MTRP59
METAR KP59 282351Z AUTO VRB03KT M02/M11 A3008 RMK AO1 SLP205
T10221106 10011 21028 56024





000
SAUS43 KMQT 282354
MTRP59
METAR KP59 282351Z AUTO VRB03KT M02/M11 A3008 RMK AO1 SLP205
T10221106 10011 21028 56024





000
SAUS43 KMQT 282303 COR
MTRP53
METAR KP53 282256Z AUTO 19010G15KT 03/M13 A3014 RMK AO1 SLP218
T00331133





000
SAUS43 KMQT 282303 COR
MTRP53
METAR KP53 282256Z AUTO 19010G15KT 03/M13 A3014 RMK AO1 SLP218
T00331133





000
SAUS43 KMQT 282254
MTRP59
METAR KP59 282251Z AUTO 21009KT M01/M10 A3010 RMK AO1 SLP212
T10111100





000
SAUS43 KMQT 282254
MTRP59
METAR KP59 282251Z AUTO 21009KT M01/M10 A3010 RMK AO1 SLP212
T10111100





000
SAUS43 KMQT 282203 COR
MTRP53
METAR KP53 282156Z AUTO VRB03KT M02/M07 A3016 RMK AO1 SLP226
T10171072





000
SAUS43 KMQT 282154
MTRP59
METAR KP59 282151Z AUTO 00000KT 00/M09 A3012 RMK AO1 SLP219
T00001089





000
SAUS43 KMQT 282154
MTRP59
METAR KP59 282151Z AUTO 00000KT 00/M09 A3012 RMK AO1 SLP219
T00001089





000
SAUS43 KMQT 282104 COR
MTRP53
METAR KP53 282056Z AUTO 21007KT 04/M17 A3017 RMK AO1 SLP229
T00441167 56021





000
SAUS43 KMQT 282104 COR
MTRP53
METAR KP53 282056Z AUTO 21007KT 04/M17 A3017 RMK AO1 SLP229
T00441167 56021





000
SAUS43 KMQT 282054
MTRP59
METAR KP59 282051Z AUTO 09003KT M01/M12 A3015 RMK AO1 SLP229
T10061122 58021





000
SAUS43 KMQT 282003 COR
MTRP53
METAR KP53 281956Z AUTO 27007KT 03/M18 A3019 RMK AO1 SLP235
T00331178





000
SAUS43 KMQT 281954
MTRP59
METAR KP59 281951Z AUTO 06004KT M01/M10 A3017 RMK AO1 SLP236
T10061100





000
SAUS43 KMQT 281954
MTRP59
METAR KP59 281951Z AUTO 06004KT M01/M10 A3017 RMK AO1 SLP236
T10061100





000
SAUS43 KMQT 281903 COR
MTRP53
METAR KP53 281856Z AUTO 25005KT 03/M18 A3021 RMK AO1 SLP244
T00281183





000
SAUS43 KMQT 281903 COR
MTRP53
METAR KP53 281856Z AUTO 25005KT 03/M18 A3021 RMK AO1 SLP244
T00281183





000
SAUS43 KMQT 281853
MTRP59
METAR KP59 281851Z AUTO 02004KT M01/M11 A3020 RMK AO1 SLP246
T10111111





000
SAUS43 KMQT 281853
MTRP59
METAR KP59 281851Z AUTO 02004KT M01/M11 A3020 RMK AO1 SLP246
T10111111





000
SAUS43 KMQT 281804 COR
MTRP53
METAR KP53 281756Z AUTO 19005KT 01/M17 A3024 RMK AO1 SLP252
T00111167 10011 21183 58018





000
SAUS43 KMQT 281804 COR
MTRP53
METAR KP53 281756Z AUTO 19005KT 01/M17 A3024 RMK AO1 SLP252
T00111167 10011 21183 58018





000
SAUS43 KMQT 281753
MTRP59
METAR KP59 281751Z AUTO 04004KT M02/M13 A3021 RMK AO1 SLP252
T10221128 11017 21172 58012





000
SAUS43 KMQT 281753
MTRP59
METAR KP59 281751Z AUTO 04004KT M02/M13 A3021 RMK AO1 SLP252
T10221128 11017 21172 58012





000
SAUS43 KMQT 281704 COR
MTRP53
METAR KP53 281656Z AUTO 00000KT M01/M18 A3026 RMK AO1 SLP260
T10061178





000
SAUS43 KMQT 281704 COR
MTRP53
METAR KP53 281656Z AUTO 00000KT M01/M18 A3026 RMK AO1 SLP260
T10061178





000
SAUS43 KMQT 281652
MTRP59
METAR KP59 281651Z AUTO 36005KT M03/M13 A3023 RMK AO1 SLP258
T10281128





000
SAUS43 KMQT 281652
MTRP59
METAR KP59 281651Z AUTO 36005KT M03/M13 A3023 RMK AO1 SLP258
T10281128





000
SAUS43 KMQT 281603 COR
MTRP53
METAR KP53 281556Z AUTO VRB04KT M02/M17 A3028 RMK AO1 SLP268
T10221172





000
SAUS43 KMQT 281603 COR
MTRP53
METAR KP53 281556Z AUTO VRB04KT M02/M17 A3028 RMK AO1 SLP268
T10221172





000
SAUS43 KMQT 281554
MTRP59
METAR KP59 281551Z AUTO VRB04KT M02/M12 A3025 RMK AO1 SLP261
T10221122





000
SAUS43 KMQT 281554
MTRP59
METAR KP59 281551Z AUTO VRB04KT M02/M12 A3025 RMK AO1 SLP261
T10221122





000
SAUS43 KMQT 281504 COR
MTRP53
METAR KP53 281456Z AUTO 21007KT M04/M17 A3029 RMK AO1 SLP271
T10441172 50000





000
SAUS43 KMQT 281504 COR
MTRP53
METAR KP53 281456Z AUTO 21007KT M04/M17 A3029 RMK AO1 SLP271
T10441172 50000





000
SAUS43 KMQT 281453
MTRP59
METAR KP59 281451Z AUTO 24005KT M04/M15 A3025 RMK AO1 SLP264
T10391150 50004





000
SAUS43 KMQT 281453
MTRP59
METAR KP59 281451Z AUTO 24005KT M04/M15 A3025 RMK AO1 SLP264
T10391150 50004





000
SAUS43 KMQT 281404 COR
MTRP53
METAR KP53 281356Z AUTO 19003KT M09/M14 A3029 RMK AO1 SLP273
T10891144





000
SAUS43 KMQT 281404 COR
MTRP53
METAR KP53 281356Z AUTO 19003KT M09/M14 A3029 RMK AO1 SLP273
T10891144





000
SAUS43 KMQT 281354
MTRP59
METAR KP59 281351Z AUTO VRB06KT M06/M13 A3025 RMK AO1 SLP265
T10611133





000
SAUS43 KMQT 281354
MTRP59
METAR KP59 281351Z AUTO VRB06KT M06/M13 A3025 RMK AO1 SLP265
T10611133





000
SAUS43 KMQT 281303 COR
MTRP53
METAR KP53 281256Z AUTO 18005KT M16/M20 A3030 RMK AO1 SLP279
T11611200





000
SAUS43 KMQT 281303 COR
MTRP53
METAR KP53 281256Z AUTO 18005KT M16/M20 A3030 RMK AO1 SLP279
T11611200





000
SAUS43 KMQT 281252
MTRP59
METAR KP59 281251Z AUTO VRB04KT M12/M16 A3026 RMK AO1 SLP268
T11171161





000
SAUS43 KMQT 281252
MTRP59
METAR KP59 281251Z AUTO VRB04KT M12/M16 A3026 RMK AO1 SLP268
T11171161





000
SAUS43 KMQT 281203 COR
MTRP53
METAR KP53 281156Z AUTO 19005KT M18/M22 A3029 RMK AO1 SLP274
T11831217 11167 21189 53015





000
SAUS43 KMQT 281203 COR
MTRP53
METAR KP53 281156Z AUTO 19005KT M18/M22 A3029 RMK AO1 SLP274
T11831217 11167 21189 53015





000
SAUS43 KMQT 281154
MTRP59
METAR KP59 281151Z AUTO 24007KT M17/M20 A3024 RMK AO1 SLP264
T11721200 11150 21183 51009





000
SAUS43 KMQT 281154
MTRP59
METAR KP59 281151Z AUTO 24007KT M17/M20 A3024 RMK AO1 SLP264
T11721200 11150 21183 51009





000
SAUS43 KMQT 281104 COR
MTRP53
METAR KP53 281056Z AUTO 18008KT M18/M22 A3027 RMK AO1 SLP266
T11831217





000
SAUS43 KMQT 281104 COR
MTRP53
METAR KP53 281056Z AUTO 18008KT M18/M22 A3027 RMK AO1 SLP266
T11831217





000
SAUS43 KMQT 281053
MTRP59
METAR KP59 281051Z AUTO 25006KT M17/M19 A3023 RMK AO1 SLP262
T11671189





000
SAUS43 KMQT 281053
MTRP59
METAR KP59 281051Z AUTO 25006KT M17/M19 A3023 RMK AO1 SLP262
T11671189





000
SAUS43 KMQT 281004 COR
MTRP53
METAR KP53 280956Z AUTO 20006KT M18/M21 A3025 RMK AO1 SLP259
T11781211





000
SAUS43 KMQT 280954
MTRP59
METAR KP59 280951Z AUTO 24006KT M17/M20 A3023 RMK AO1 SLP261
T11721200





000
SAUS43 KMQT 280903 COR
MTRP53
METAR KP53 280856Z AUTO 18006KT M18/M22 A3025 RMK AO1 SLP258
T11831217 53002





000
SAUS43 KMQT 280854
MTRP59
METAR KP59 280851Z AUTO 24006KT M16/M19 A3021 RMK AO1 SLP254
T11611189 58005





000
SAUS43 KMQT 280854
MTRP59
METAR KP59 280851Z AUTO 24006KT M16/M19 A3021 RMK AO1 SLP254
T11611189 58005





000
SAUS43 KMQT 280804 COR
MTRP53
METAR KP53 280756Z AUTO 19007KT M17/M21 A3024 RMK AO1 SLP257
T11721211





000
SAUS43 KMQT 280804 COR
MTRP53
METAR KP53 280756Z AUTO 19007KT M17/M21 A3024 RMK AO1 SLP257
T11721211





000
SAUS43 KMQT 280754
MTRP59
METAR KP59 280751Z AUTO 25006KT M16/M19 A3022 RMK AO1 SLP258
T11611194





000
SAUS43 KMQT 280754
MTRP59
METAR KP59 280751Z AUTO 25006KT M16/M19 A3022 RMK AO1 SLP258
T11611194





000
SAUS43 KMQT 280703 COR
MTRP53
METAR KP53 280656Z AUTO 18008KT M17/M21 A3024 RMK AO1 SLP256
T11721206





000
SAUS43 KMQT 280654
MTRP59
METAR KP59 280651Z AUTO 25008KT M16/M19 A3022 RMK AO1 SLP257
T11611189





000
SAUS43 KMQT 280603 COR
MTRP53
METAR KP53 280556Z AUTO 19008KT M17/M20 A3024 RMK AO1 SLP256
T11671200 11106 21167 51002





000
SAUS43 KMQT 280603 COR
MTRP53
METAR KP53 280556Z AUTO 19008KT M17/M20 A3024 RMK AO1 SLP256
T11671200 11106 21167 51002





000
SAUS43 KMQT 280553
MTRP59
METAR KP59 280551Z AUTO 25007KT M16/M18 A3022 RMK AO1 SLP258
T11561183 11100 21161 53001





000
SAUS43 KMQT 280553
MTRP59
METAR KP59 280551Z AUTO 25007KT M16/M18 A3022 RMK AO1 SLP258
T11561183 11100 21161 53001





000
SAUS43 KMQT 280503 COR
MTRP53
METAR KP53 280456Z AUTO 19005KT M16/M19 A3024 RMK AO1 SLP255
T11611194 410831161





000
SAUS43 KMQT 280503 COR
MTRP53
METAR KP53 280456Z AUTO 19005KT M16/M19 A3024 RMK AO1 SLP255
T11611194 410831161





000
SAUS43 KMQT 280454
MTRP59
METAR KP59 280451Z AUTO 24005KT M15/M18 A3022 RMK AO1 SLP259
T11501178 410831172





000
SAUS43 KMQT 280403 COR
MTRP53
METAR KP53 280356Z AUTO 18006KT M16/M18 A3024 RMK AO1 SLP257
T11561183





000
SAUS43 KMQT 280403 COR
MTRP53
METAR KP53 280356Z AUTO 18006KT M16/M18 A3024 RMK AO1 SLP257
T11561183





000
SAUS43 KMQT 280352
MTRP59
METAR KP59 280351Z AUTO 24004KT M14/M17 A3022 RMK AO1 SLP257
T11391167





000
SAUS43 KMQT 280352
MTRP59
METAR KP59 280351Z AUTO 24004KT M14/M17 A3022 RMK AO1 SLP257
T11391167





000
SAUS43 KMQT 280303 COR
MTRP53
METAR KP53 280256Z AUTO 17005KT M14/M17 A3023 RMK AO1 SLP254
T11441172 52001





000
SAUS43 KMQT 280303 COR
MTRP53
METAR KP53 280256Z AUTO 17005KT M14/M17 A3023 RMK AO1 SLP254
T11441172 52001





000
SAUS43 KMQT 280254
MTRP59
METAR KP59 280251Z AUTO 00000KT M14/M17 A3022 RMK AO1 SLP258
T11391172 55001





000
SAUS43 KMQT 280254
MTRP59
METAR KP59 280251Z AUTO 00000KT M14/M17 A3022 RMK AO1 SLP258
T11391172 55001





000
SAUS43 KMQT 280203 COR
MTRP53
METAR KP53 280156Z AUTO 00000KT M12/M16 A3023 RMK AO1 SLP253
T11221161





000
SAUS43 KMQT 280154
MTRP59
METAR KP59 280151Z AUTO 28003KT M13/M17 A3022 RMK AO1 SLP257
T11331172





000
SAUS43 KMQT 280103 COR
MTRP53
METAR KP53 280056Z AUTO 00000KT M12/M17 A3023 RMK AO1 SLP254
T11171167





000
SAUS43 KMQT 280052
MTRP59
METAR KP59 280051Z AUTO 24003KT M12/M15 A3022 RMK AO1 SLP258
T11221150





000
SAUS43 KMQT 280003 COR
MTRP53
METAR KP53 272356Z AUTO 34006KT M11/M16 A3023 RMK AO1 SLP252
T11061161 11083 21106 53001





000
SAUS43 KMQT 280003 COR
MTRP53
METAR KP53 272356Z AUTO 34006KT M11/M16 A3023 RMK AO1 SLP252
T11061161 11083 21106 53001





000
SAUS43 KMQT 272352
MTRP59
METAR KP59 272351Z AUTO 00000KT M10/M14 A3022 RMK AO1 SLP259
T11001144 11083 21100 55004





000
SAUS43 KMQT 272304 COR
MTRP53
METAR KP53 272256Z AUTO 33011KT M09/M16 A3023 RMK AO1 SLP250
T10891156





000
SAUS43 KMQT 272304 COR
MTRP53
METAR KP53 272256Z AUTO 33011KT M09/M16 A3023 RMK AO1 SLP250
T10891156





000
SAUS43 KMQT 272253
MTRP59
METAR KP59 272251Z AUTO 00000KT M09/M14 A3022 RMK AO1 SLP258
T10891139





000
SAUS43 KMQT 272253
MTRP59
METAR KP59 272251Z AUTO 00000KT M09/M14 A3022 RMK AO1 SLP258
T10891139





000
SAUS43 KMQT 272203 COR
MTRP53
METAR KP53 272156Z AUTO 33013KT M08/M16 A3023 RMK AO1 SLP250
T10831156





000
SAUS43 KMQT 272153
MTRP59
METAR KP59 272151Z AUTO 02003KT M09/M14 A3023 RMK AO1 SLP261
T10891144





000
SAUS43 KMQT 272104 COR
MTRP53
METAR KP53 272056Z AUTO 34012KT M08/M15 A3023 RMK AO1 SLP250
T10831150 55005





000
SAUS43 KMQT 272104 COR
MTRP53
METAR KP53 272056Z AUTO 34012KT M08/M15 A3023 RMK AO1 SLP250
T10831150 55005





000
SAUS43 KMQT 272054
MTRP59
METAR KP59 272051Z AUTO 02005KT M08/M15 A3024 RMK AO1 SLP260
T10831150 58010





000
SAUS43 KMQT 272054
MTRP59
METAR KP59 272051Z AUTO 02005KT M08/M15 A3024 RMK AO1 SLP260
T10831150 58010





000
SAUS43 KMQT 272004 COR
MTRP53
METAR KP53 271956Z AUTO 33013KT M09/M16 A3023 RMK AO1 SLP249
T10891156





000
SAUS43 KMQT 271954
MTRP59
METAR KP59 271951Z AUTO 02005KT M08/M16 A3025 RMK AO1 SLP264
T10831161





000
SAUS43 KMQT 271954
MTRP59
METAR KP59 271951Z AUTO 02005KT M08/M16 A3025 RMK AO1 SLP264
T10831161





000
SAUS43 KMQT 271904 COR
MTRP53
METAR KP53 271856Z AUTO 32012KT M09/M15 A3023 RMK AO1 SLP251
T10941150





000
SAUS43 KMQT 271904 COR
MTRP53
METAR KP53 271856Z AUTO 32012KT M09/M15 A3023 RMK AO1 SLP251
T10941150





000
SAUS43 KMQT 271854
MTRP59
METAR KP59 271851Z AUTO 04003KT M09/M17 A3026 RMK AO1 SLP268
T10891167





000
SAUS43 KMQT 271854
MTRP59
METAR KP59 271851Z AUTO 04003KT M09/M17 A3026 RMK AO1 SLP268
T10891167





000
SAUS43 KMQT 271803 COR
MTRP53
METAR KP53 271756Z AUTO 05014KT M11/M16 A3024 RMK AO1 SLP256
T11061156 11106 21139 58008





000
SAUS43 KMQT 271754
MTRP59
METAR KP59 271751Z AUTO 06004KT M09/M17 A3027 RMK AO1 SLP271
T10941172 11094 21161 58011





000
SAUS43 KMQT 271754
MTRP59
METAR KP59 271751Z AUTO 06004KT M09/M17 A3027 RMK AO1 SLP271
T10941172 11094 21161 58011





000
SAUS43 KMQT 271703 COR
MTRP53
METAR KP53 271656Z AUTO 05012KT M11/M16 A3026 RMK AO1 SLP259
T11061161





000
SAUS43 KMQT 271703 COR
MTRP53
METAR KP53 271656Z AUTO 05012KT M11/M16 A3026 RMK AO1 SLP259
T11061161





000
SAUS43 KMQT 271653
MTRP59
METAR KP59 271651Z AUTO 00000KT M10/M17 A3029 RMK AO1 SLP278
T11001172





000
SAUS43 KMQT 271653
MTRP59
METAR KP59 271651Z AUTO 00000KT M10/M17 A3029 RMK AO1 SLP278
T11001172





000
SAUS43 KMQT 271604 COR
MTRP53
METAR KP53 271556Z AUTO 03013KT M12/M17 A3027 RMK AO1 SLP264
T11171167





000
SAUS43 KMQT 271604 COR
MTRP53
METAR KP53 271556Z AUTO 03013KT M12/M17 A3027 RMK AO1 SLP264
T11171167





000
SAUS43 KMQT 271552
MTRP59
METAR KP59 271551Z AUTO 07005KT M11/M18 A3030 RMK AO1 SLP281
T11061178





000
SAUS43 KMQT 271552
MTRP59
METAR KP59 271551Z AUTO 07005KT M11/M18 A3030 RMK AO1 SLP281
T11061178





000
SAUS43 KMQT 271504 COR
MTRP53
METAR KP53 271456Z AUTO 04014KT M13/M17 A3027 RMK AO1 SLP263
T11281172 51017





000
SAUS43 KMQT 271504 COR
MTRP53
METAR KP53 271456Z AUTO 04014KT M13/M17 A3027 RMK AO1 SLP263
T11281172 51017





000
SAUS43 KMQT 271454
MTRP59
METAR KP59 271451Z AUTO 07003KT M11/M17 A3030 RMK AO1 SLP282
T11111172 53011





000
SAUS43 KMQT 271404 COR
MTRP53
METAR KP53 271356Z AUTO 03010KT M13/M18 A3026 RMK AO1 SLP261
T11331183





000
SAUS43 KMQT 271404 COR
MTRP53
METAR KP53 271356Z AUTO 03010KT M13/M18 A3026 RMK AO1 SLP261
T11331183





000
SAUS43 KMQT 271352
MTRP59
METAR KP59 271351Z AUTO 07004KT M12/M18 A3029 RMK AO1 SLP277
T11221178





000
SAUS43 KMQT 271352
MTRP59
METAR KP59 271351Z AUTO 07004KT M12/M18 A3029 RMK AO1 SLP277
T11221178





000
SAUS43 KMQT 271304 COR
MTRP53
METAR KP53 271256Z AUTO 04010KT M13/M18 A3024 RMK AO1 SLP253
T11331183





000
SAUS43 KMQT 271304 COR
MTRP53
METAR KP53 271256Z AUTO 04010KT M13/M18 A3024 RMK AO1 SLP253
T11331183





000
SAUS43 KMQT 271254
MTRP59
METAR KP59 271251Z AUTO 08005KT M14/M18 A3028 RMK AO1 SLP276
T11441183





000
SAUS43 KMQT 271203 COR
MTRP53
METAR KP53 271156Z AUTO 05014KT M13/M18 A3022 RMK AO1 SLP246
T11331178 11083 21133 53020





000
SAUS43 KMQT 271154
MTRP59
METAR KP59 271151Z AUTO 10003KT M16/M19 A3027 RMK AO1 SLP272
T11561189 11111 21172 51013





000
SAUS43 KMQT 271154
MTRP59
METAR KP59 271151Z AUTO 10003KT M16/M19 A3027 RMK AO1 SLP272
T11561189 11111 21172 51013





000
SAUS43 KMQT 271103 COR
MTRP53
METAR KP53 271056Z AUTO 04013KT M12/M17 A3019 RMK AO1 SLP238
T11221167





000
SAUS43 KMQT 271103 COR
MTRP53
METAR KP53 271056Z AUTO 04013KT M12/M17 A3019 RMK AO1 SLP238
T11221167





000
SAUS43 KMQT 271053
MTRP59
METAR KP59 271051Z AUTO 00000KT M16/M19 A3026 RMK AO1 SLP269
T11561189





000
SAUS43 KMQT 271053
MTRP59
METAR KP59 271051Z AUTO 00000KT M16/M19 A3026 RMK AO1 SLP269
T11561189





000
SAUS43 KMQT 271003 COR
MTRP53
METAR KP53 270956Z AUTO 03006KT M13/M18 A3017 RMK AO1 SLP231
T11331178





000
SAUS43 KMQT 270954
MTRP59
METAR KP59 270951Z AUTO 08006KT M16/M19 A3024 RMK AO1 SLP261
T11561189





000
SAUS43 KMQT 270903 COR
MTRP53
METAR KP53 270856Z AUTO 03011KT M12/M17 A3016 RMK AO1 SLP226
T11221167 53015





000
SAUS43 KMQT 270854
MTRP59
METAR KP59 270851Z AUTO 09006KT M13/M17 A3023 RMK AO1 SLP258
T11331172 53019





000
SAUS43 KMQT 270854
MTRP59
METAR KP59 270851Z AUTO 09006KT M13/M17 A3023 RMK AO1 SLP258
T11331172 53019





000
SAUS43 KMQT 270803 COR
MTRP53
METAR KP53 270756Z AUTO 03011KT M09/M13 A3014 RMK AO1 SLP218
T10891133





000
SAUS43 KMQT 270753
MTRP59
METAR KP59 270751Z AUTO 09006KT M13/M16 A3021 RMK AO1 SLP250
T11281161





000
SAUS43 KMQT 270703 COR
MTRP53
METAR KP53 270656Z AUTO 36005KT M09/M14 A3012 RMK AO1 SLP213
T10941139





000
SAUS43 KMQT 270703 COR
MTRP53
METAR KP53 270656Z AUTO 36005KT M09/M14 A3012 RMK AO1 SLP213
T10941139





000
SAUS43 KMQT 270654
MTRP59
METAR KP59 270651Z AUTO 07007KT M12/M17 A3019 RMK AO1 SLP243
T11221167





000
SAUS43 KMQT 270654
MTRP59
METAR KP59 270651Z AUTO 07007KT M12/M17 A3019 RMK AO1 SLP243
T11221167





000
SAUS43 KMQT 270603 COR
MTRP53
METAR KP53 270556Z AUTO 04006KT M13/M17 A3012 RMK AO1 SLP212
T11281172 11061 21128 52005





000
SAUS43 KMQT 270603 COR
MTRP53
METAR KP53 270556Z AUTO 04006KT M13/M17 A3012 RMK AO1 SLP212
T11281172 11061 21128 52005





000
SAUS43 KMQT 270554
MTRP59
METAR KP59 270551Z AUTO 06006KT M11/M16 A3017 RMK AO1 SLP237
T11111161 11072 21122 52005





000
SAUS43 KMQT 270554
MTRP59
METAR KP59 270551Z AUTO 06006KT M11/M16 A3017 RMK AO1 SLP237
T11111161 11072 21122 52005





000
SAUS43 KMQT 270504 COR
MTRP53
METAR KP53 270456Z AUTO 03010KT M10/M15 A3012 RMK AO1 SLP211
T11001150 400331100





000
SAUS43 KMQT 270504 COR
MTRP53
METAR KP53 270456Z AUTO 03010KT M10/M15 A3012 RMK AO1 SLP211
T11001150 400331100





000
SAUS43 KMQT 270452
MTRP59
METAR KP59 270451Z AUTO 03007KT M09/M15 A3017 RMK AO1 SLP235
T10941150 400111100





000
SAUS43 KMQT 270403 COR
MTRP53
METAR KP53 270356Z AUTO 03015KT M07/M11 A3010 RMK AO1 SLP205
T10721111





000
SAUS43 KMQT 270354
MTRP59
METAR KP59 270351Z AUTO 04008KT M09/M14 A3016 RMK AO1 SLP231
T10891144





000
SAUS43 KMQT 270354
MTRP59
METAR KP59 270351Z AUTO 04008KT M09/M14 A3016 RMK AO1 SLP231
T10891144





000
SAUS43 KMQT 270302
MTRP53
METAR KP53 270256Z AUTO 01016G23KT M07/M12 A3010 RMK AO1 SLP205
T10671122 51014





000
SAUS43 KMQT 270252
MTRP59
METAR KP59 270251Z AUTO 04011KT M09/M15 A3015 RMK AO1 SLP230
T10891150 51017





000
SAUS43 KMQT 270252
MTRP59
METAR KP59 270251Z AUTO 04011KT M09/M15 A3015 RMK AO1 SLP230
T10891150 51017





000
SAUS43 KMQT 270204 COR
MTRP53
METAR KP53 270156Z AUTO 35014KT M07/M11 A3010 RMK AO1 SLP204
T10671111





000
SAUS43 KMQT 270204 COR
MTRP53
METAR KP53 270156Z AUTO 35014KT M07/M11 A3010 RMK AO1 SLP204
T10671111





000
SAUS43 KMQT 270154
MTRP59
METAR KP59 270151Z AUTO 04010KT M09/M15 A3015 RMK AO1 SLP228
T10891150





000
SAUS43 KMQT 270154
MTRP59
METAR KP59 270151Z AUTO 04010KT M09/M15 A3015 RMK AO1 SLP228
T10891150





000
SAUS43 KMQT 270103 COR
MTRP53
METAR KP53 270056Z AUTO 35015KT M06/M13 A3008 RMK AO1 SLP198
T10611133





000
SAUS43 KMQT 270103 COR
MTRP53
METAR KP53 270056Z AUTO 35015KT M06/M13 A3008 RMK AO1 SLP198
T10611133





000
SAUS43 KMQT 270053
MTRP59
METAR KP59 270051Z AUTO 05012KT M08/M15 A3013 RMK AO1 SLP221
T10831150





000
SAUS43 KMQT 270053
MTRP59
METAR KP59 270051Z AUTO 05012KT M08/M15 A3013 RMK AO1 SLP221
T10831150





000
SAUS43 KMQT 270004 COR
MTRP53
METAR KP53 262356Z AUTO 35018G26KT M06/M13 A3006 RMK AO1 PK WND
35027/2315 SLP189 T10611128 11056 21067 53022





000
SAUS43 KMQT 270004 COR
MTRP53
METAR KP53 262356Z AUTO 35018G26KT M06/M13 A3006 RMK AO1 PK WND
35027/2315 SLP189 T10611128 11056 21067 53022





000
SAUS43 KMQT 262354
MTRP59
METAR KP59 262351Z AUTO 03014G21KT M07/M13 A3010 RMK AO1 SLP211
T10721133 11061 21078 53015





000
SAUS43 KMQT 262354
MTRP59
METAR KP59 262351Z AUTO 03014G21KT M07/M13 A3010 RMK AO1 SLP211
T10721133 11061 21078 53015





000
SAUS43 KMQT 262303 COR
MTRP53
METAR KP53 262256Z AUTO 35018G29KT M06/M12 A3004 RMK AO1 PK WND
36029/2248 SLP181 T10611122





000
SAUS43 KMQT 262253
MTRP59
METAR KP59 262251Z AUTO 03014G22KT M07/M14 A3009 RMK AO1 SLP205
T10671139





000
SAUS43 KMQT 262253
MTRP59
METAR KP59 262251Z AUTO 03014G22KT M07/M14 A3009 RMK AO1 SLP205
T10671139





000
SAUS43 KMQT 262204 COR
MTRP53
METAR KP53 262156Z AUTO 35019G27KT M07/M12 A3002 RMK AO1 PK WND
35029/2142 SLP174 T10671117





000
SAUS43 KMQT 262204 COR
MTRP53
METAR KP53 262156Z AUTO 35019G27KT M07/M12 A3002 RMK AO1 PK WND
35029/2142 SLP174 T10671117





000
SAUS43 KMQT 262154
MTRP59
METAR KP59 262151Z AUTO 01016KT M06/M12 A3007 RMK AO1 SLP200
T10611122





000
SAUS43 KMQT 262104 COR
MTRP53
METAR KP53 262056Z AUTO 35021G29KT M07/M11 A3000 RMK AO1 PK WND
36032/2044 SLP167 T10671111 53007





000
SAUS43 KMQT 262054
MTRP59
METAR KP59 262051Z AUTO 01019G23KT M07/M12 A3006 RMK AO1 SLP194
T10721122 53006





000
SAUS43 KMQT 262004 COR
MTRP53
METAR KP53 261956Z AUTO 35019G29KT M07/M11 A2999 RMK AO1 PK WND
36030/1945 SLP163 T10671106





000
SAUS43 KMQT 261953
MTRP59
METAR KP59 261951Z AUTO 01017KT M07/M12 A3005 RMK AO1 SLP191
T10721117





000
SAUS43 KMQT 261953
MTRP59
METAR KP59 261951Z AUTO 01017KT M07/M12 A3005 RMK AO1 SLP191
T10721117





000
SAUS43 KMQT 261903 COR
MTRP53
METAR KP53 261856Z AUTO 34017G24KT M06/M11 A2998 RMK AO1 PK WND
35029/1809 SLP161 T10611111





000
SAUS43 KMQT 261903 COR
MTRP53
METAR KP53 261856Z AUTO 34017G24KT M06/M11 A2998 RMK AO1 PK WND
35029/1809 SLP161 T10611111





000
SAUS43 KMQT 261853
MTRP59
METAR KP59 261851Z AUTO 02018KT M07/M12 A3005 RMK AO1 SLP189
T10721117





000
SAUS43 KMQT 261853
MTRP59
METAR KP59 261851Z AUTO 02018KT M07/M12 A3005 RMK AO1 SLP189
T10721117





000
SAUS43 KMQT 261803 COR
MTRP53
METAR KP53 261756Z AUTO 36020G25KT M06/M11 A2998 RMK AO1 PK WND
35030/1738 SLP160 T10561106 10000 21056 51016





000
SAUS43 KMQT 261803 COR
MTRP53
METAR KP53 261756Z AUTO 36020G25KT M06/M11 A2998 RMK AO1 PK WND
35030/1738 SLP160 T10561106 10000 21056 51016





000
SAUS43 KMQT 261754
MTRP59
METAR KP59 261751Z AUTO 04015G23KT M07/M12 A3004 RMK AO1 SLP187
T10721117 11056 21078 51018





    US Dept of Commerce
    National Oceanic and Atmospheric Administration
    National Weather Service
    1325 East West Highway
    Silver Spring, MD 20910
    Page Author: NWS Internet Services Team
Disclaimer
Information Quality
Credits
Glossary
Privacy Policy
Freedom of Information Act (FOIA)
About Us
Career Opportunities